Skip Navigation Links Skip Navigation Links

Current Weather

Mount Vernon, Ill.

For information only: do not use for flight planning or navigation.
Latest weather
Observation time Thursday, January 27, 2022 9:56 PM CST
Local time Thursday, January 27, 2022 10:42 PM CST
Flight conditions Visual Meteorological Conditions
Winds
Wind direction West-Southwest (240°)
Wind speed 3 mph
Visibility 10 mi.
Sky condition
Ceiling 3,000 ft. overcast
Cloud layer overcast 3,000 ft.
Temperature 33°F
Dewpoint 24°F
Altimeter 30.25 in.Hg
Derived measurements
Relative humidity 69%
Wind chill 30°F
Density altitude -1586 ft.
Sea-level pressure 30.28 in.Hg
Remarks
Fully automated report.
Automated weather observing station with precipitation discriminator.
Freezing rain sensor not operating.
METAR KMVN 280356Z AUTO 24003KT 10SM OVC030 01/M04 A3025 RMK AO2 SLP253 T00061044 FZRANO

Settings

Location code

InnerDrive.Weather 4.0.6770.0 Release CLR 4.0.30319.42000
Copyright ©2018 Inner Drive Technology. All rights reserved. Portions Copyright ©1986-2018 David Braverman.

Find weather

Site navigation


Skip Navigation Links

Place info

Page info

PayPal - The safer, easier way to pay online!

Return home.

Copyright ©2022 Inner Drive Technology. Purveyors of fine, hand-crafted computer software. Page printed 2022-01-28T04:42:43 UTC.